Columbia Falls, MT

11:00 AM MDT on September 21, 2014 (GMT -0600)
8th St. W Hungry Horse | Change Station
CLOSE
Current Station
Personal Weather Station
Location: Hungry Horse, MT
Elevation: 3114 ft
Nearby Weather Stations

Elev 3114 ft 48.39 °N, 114.08 °W | Updated 3 seconds ago

Clear
Clear
63.3 °F
Feels Like 63.3 °F
N
2.2
Wind Variable Wind from West
Gusts 5.4 mph

Today
High -- | Low -- °F
--% Chance of Precip.
Yesterday
High -- | Low -- °F
Precip. -- in
7:22 AM 7:36 PM
Waning Crescent, 6% visible
Pressure 30.20 in
Visibility 10.0 miles
Clouds Clear
Dew Point 47 °F
Humidity 56%
Rainfall 0.00 in
Snow Depth 1 in , 0 in , 0 in
UV 2 out of 12
Pollen 2.20 out of 12
Air Quality Not available.
Flu Activity Not available.
METAR KCTB 211556Z AUTO 14005KT 10SM CLR 13/06 A3023 RMK AO2 SLP225 T01280056

More Conditions Fewer Conditions

Pressure 30.20 in
Visibility 10.0 miles
Clouds Clear
Dew Point 47 °F
Humidity 56%
Rainfall 0.00 in
Snow Depth 1 in , 0 in , 0 in
UV 2 out of 12
Pollen 2.20 out of 12
Air Quality Not available.
Flu Activity Not available.
METAR KCTB 211556Z AUTO 14005KT 10SM CLR 13/06 A3023 RMK AO2 SLP225 T01280056

More Conditions Fewer Conditions

10-Day Weather Forecast

Almanac

Astronomy

Sep. 21, 2014 Rise Set
Actual Time 7:22 AM MDT 7:36 PM MDT
Civil Twilight 6:50 AM MDT 8:07 PM MDT
Nautical Twilight 6:13 AM MDT 8:44 PM MDT
Astronomical Twilight 5:35 AM MDT 9:22 PM MDT
Moon 4:50 AM MDT 6:21 PM MDT
Length of Visible Light 13h 16m
Length of Day
12h 14m
Tomorrow will be 3m 30s shorter.
Waning Crescent, 6% of the Moon is Illuminated
Today
Waning Crescent
Sep 24
New
Oct 1
First Quarter
Oct 8
Full
Oct 15
Last Quarter

Today's Extremes

State Highs State Lows

Community

WunderPhotos

Upload Photos

1,755,190 photos uploaded!

Nearby

Snow Depth

Station Depth Elevation
Black Pine 1 in 7210 ft
White Mill 0 in 8700 ft
Stringer Creek 0 in 6550 ft
Placer Basin 0 in 8830 ft
Box Canyon 0 in 6700 ft

Earthquake Activity

City Distance Mag. Time & Date
No recent earthquake activity has been reported nearby.
Minimum magnitude displayed is 2.5.

Coastal Water Temperatures

Place Temperature
No Stations Reporting

Nearby Weather Stations